sensor_id;sensor_type;location;lat;lon;timestamp;P1;durP1;ratioP1;P2;durP2;ratioP2
68192;SDS011;55012;47.562;18.414;2023-03-03T00:00:43;58.17;;;26.05;;
68192;SDS011;55012;47.562;18.414;2023-03-03T00:03:09;58.83;;;26.73;;
68192;SDS011;55012;47.562;18.414;2023-03-03T00:05:39;63.35;;;27.55;;
68192;SDS011;55012;47.562;18.414;2023-03-03T00:08:04;54.58;;;24.13;;
68192;SDS011;55012;47.562;18.414;2023-03-03T00:10:30;62.05;;;26.77;;
68192;SDS011;55012;47.562;18.414;2023-03-03T00:12:55;56.33;;;25.33;;
68192;SDS011;55012;47.562;18.414;2023-03-03T00:15:22;53.03;;;24.30;;
68192;SDS011;55012;47.562;18.414;2023-03-03T00:17:49;57.33;;;26.15;;
68192;SDS011;55012;47.562;18.414;2023-03-03T00:22:58;51.88;;;21.45;;
68192;SDS011;55012;47.562;18.414;2023-03-03T00:25:37;43.17;;;19.65;;
68192;SDS011;55012;47.562;18.414;2023-03-03T00:28:15;45.58;;;17.38;;
68192;SDS011;55012;47.562;18.414;2023-03-03T00:30:43;40.47;;;17.75;;
68192;SDS011;55012;47.562;18.414;2023-03-03T00:33:51;43.58;;;18.13;;
68192;SDS011;55012;47.562;18.414;2023-03-03T00:38:40;47.13;;;20.23;;
68192;SDS011;55012;47.562;18.414;2023-03-03T00:41:10;50.13;;;21.17;;
68192;SDS011;55012;47.562;18.414;2023-03-03T00:43:50;51.78;;;21.55;;
68192;SDS011;55012;47.562;18.414;2023-03-03T00:46:18;55.90;;;23.27;;
68192;SDS011;55012;47.562;18.414;2023-03-03T00:48:45;60.83;;;25.55;;
68192;SDS011;55012;47.562;18.414;2023-03-03T00:51:18;69.70;;;27.73;;
68192;SDS011;55012;47.562;18.414;2023-03-03T00:53:45;66.10;;;27.97;;
68192;SDS011;55012;47.562;18.414;2023-03-03T00:56:10;62.42;;;25.70;;
68192;SDS011;55012;47.562;18.414;2023-03-03T00:58:36;72.70;;;27.33;;
68192;SDS011;55012;47.562;18.414;2023-03-03T01:01:01;62.03;;;26.52;;
68192;SDS011;55012;47.562;18.414;2023-03-03T01:03:26;61.85;;;25.45;;
68192;SDS011;55012;47.562;18.414;2023-03-03T01:05:52;59.45;;;25.33;;
68192;SDS011;55012;47.562;18.414;2023-03-03T01:08:18;54.03;;;23.35;;
68192;SDS011;55012;47.562;18.414;2023-03-03T01:10:53;53.58;;;22.27;;
68192;SDS011;55012;47.562;18.414;2023-03-03T01:13:22;51.67;;;23.27;;
68192;SDS011;55012;47.562;18.414;2023-03-03T01:15:51;55.15;;;22.25;;
68192;SDS011;55012;47.562;18.414;2023-03-03T01:18:17;54.50;;;21.25;;
68192;SDS011;55012;47.562;18.414;2023-03-03T01:20:42;53.10;;;21.17;;
68192;SDS011;55012;47.562;18.414;2023-03-03T01:23:08;54.20;;;21.83;;
68192;SDS011;55012;47.562;18.414;2023-03-03T01:25:34;45.88;;;20.70;;
68192;SDS011;55012;47.562;18.414;2023-03-03T01:27:59;47.03;;;18.67;;
68192;SDS011;55012;47.562;18.414;2023-03-03T01:30:25;49.63;;;20.55;;
68192;SDS011;55012;47.562;18.414;2023-03-03T01:32:51;46.03;;;19.95;;
68192;SDS011;55012;47.562;18.414;2023-03-03T01:35:17;42.00;;;19.52;;
68192;SDS011;55012;47.562;18.414;2023-03-03T01:37:43;47.70;;;20.65;;
68192;SDS011;55012;47.562;18.414;2023-03-03T01:40:19;44.47;;;18.75;;
68192;SDS011;55012;47.562;18.414;2023-03-03T01:42:47;42.80;;;18.23;;
68192;SDS011;55012;47.562;18.414;2023-03-03T01:45:23;42.22;;;17.80;;
68192;SDS011;55012;47.562;18.414;2023-03-03T01:53:11;54.70;;;24.38;;
68192;SDS011;55012;47.562;18.414;2023-03-03T01:55:41;56.78;;;26.70;;
68192;SDS011;55012;47.562;18.414;2023-03-03T01:58:13;53.95;;;24.23;;
68192;SDS011;55012;47.562;18.414;2023-03-03T02:00:46;54.63;;;22.92;;
68192;SDS011;55012;47.562;18.414;2023-03-03T02:03:17;50.05;;;20.75;;
68192;SDS011;55012;47.562;18.414;2023-03-03T02:05:46;45.92;;;19.73;;
68192;SDS011;55012;47.562;18.414;2023-03-03T02:08:14;46.67;;;19.02;;
68192;SDS011;55012;47.562;18.414;2023-03-03T02:10:43;39.83;;;18.95;;
68192;SDS011;55012;47.562;18.414;2023-03-03T02:13:10;44.78;;;18.75;;
68192;SDS011;55012;47.562;18.414;2023-03-03T02:15:36;44.92;;;18.70;;
68192;SDS011;55012;47.562;18.414;2023-03-03T02:18:14;39.15;;;18.08;;
68192;SDS011;55012;47.562;18.414;2023-03-03T02:23:40;36.05;;;14.63;;
68192;SDS011;55012;47.562;18.414;2023-03-03T02:26:26;30.00;;;13.77;;
68192;SDS011;55012;47.562;18.414;2023-03-03T02:28:53;36.47;;;14.35;;
68192;SDS011;55012;47.562;18.414;2023-03-03T02:31:22;31.42;;;13.63;;
68192;SDS011;55012;47.562;18.414;2023-03-03T02:33:50;33.72;;;14.60;;
68192;SDS011;55012;47.562;18.414;2023-03-03T02:36:18;31.23;;;14.23;;
68192;SDS011;55012;47.562;18.414;2023-03-03T02:41:42;38.60;;;17.42;;
68192;SDS011;55012;47.562;18.414;2023-03-03T02:44:18;39.20;;;16.30;;
68192;SDS011;55012;47.562;18.414;2023-03-03T02:46:45;34.42;;;16.55;;
68192;SDS011;55012;47.562;18.414;2023-03-03T02:49:13;34.58;;;16.23;;
68192;SDS011;55012;47.562;18.414;2023-03-03T02:51:40;34.35;;;14.98;;
68192;SDS011;55012;47.562;18.414;2023-03-03T02:54:07;48.30;;;22.85;;
68192;SDS011;55012;47.562;18.414;2023-03-03T02:56:34;50.47;;;24.88;;
68192;SDS011;55012;47.562;18.414;2023-03-03T02:58:59;54.30;;;24.45;;
68192;SDS011;55012;47.562;18.414;2023-03-03T03:01:25;57.65;;;24.92;;
68192;SDS011;55012;47.562;18.414;2023-03-03T03:03:51;49.72;;;21.63;;
68192;SDS011;55012;47.562;18.414;2023-03-03T03:06:17;51.28;;;23.73;;
68192;SDS011;55012;47.562;18.414;2023-03-03T03:08:42;54.08;;;24.70;;
68192;SDS011;55012;47.562;18.414;2023-03-03T03:11:07;53.60;;;25.13;;
68192;SDS011;55012;47.562;18.414;2023-03-03T03:13:33;53.55;;;25.75;;
68192;SDS011;55012;47.562;18.414;2023-03-03T03:15:59;55.10;;;24.48;;
68192;SDS011;55012;47.562;18.414;2023-03-03T03:18:25;56.40;;;24.10;;
68192;SDS011;55012;47.562;18.414;2023-03-03T03:20:51;52.80;;;24.00;;
68192;SDS011;55012;47.562;18.414;2023-03-03T03:23:17;49.95;;;21.42;;
68192;SDS011;55012;47.562;18.414;2023-03-03T03:25:43;43.35;;;19.58;;
68192;SDS011;55012;47.562;18.414;2023-03-03T03:28:11;50.17;;;19.50;;
68192;SDS011;55012;47.562;18.414;2023-03-03T03:30:38;47.00;;;20.55;;
68192;SDS011;55012;47.562;18.414;2023-03-03T03:33:04;41.30;;;17.40;;
68192;SDS011;55012;47.562;18.414;2023-03-03T03:35:29;35.47;;;15.85;;
68192;SDS011;55012;47.562;18.414;2023-03-03T03:37:56;36.90;;;15.43;;
68192;SDS011;55012;47.562;18.414;2023-03-03T03:40:21;35.67;;;14.75;;
68192;SDS011;55012;47.562;18.414;2023-03-03T03:42:47;31.45;;;14.23;;
68192;SDS011;55012;47.562;18.414;2023-03-03T03:45:12;31.45;;;13.20;;
68192;SDS011;55012;47.562;18.414;2023-03-03T03:47:40;30.98;;;12.90;;
68192;SDS011;55012;47.562;18.414;2023-03-03T03:50:06;29.83;;;12.48;;
68192;SDS011;55012;47.562;18.414;2023-03-03T03:52:33;37.67;;;17.08;;
68192;SDS011;55012;47.562;18.414;2023-03-03T03:54:58;39.95;;;19.15;;
68192;SDS011;55012;47.562;18.414;2023-03-03T03:57:24;37.45;;;19.08;;
68192;SDS011;55012;47.562;18.414;2023-03-03T03:59:50;37.50;;;17.45;;
68192;SDS011;55012;47.562;18.414;2023-03-03T04:02:15;36.70;;;15.10;;
68192;SDS011;55012;47.562;18.414;2023-03-03T04:04:40;31.52;;;13.80;;
68192;SDS011;55012;47.562;18.414;2023-03-03T04:07:06;30.75;;;13.48;;
68192;SDS011;55012;47.562;18.414;2023-03-03T04:09:31;29.35;;;13.07;;
68192;SDS011;55012;47.562;18.414;2023-03-03T04:11:57;29.02;;;13.00;;
68192;SDS011;55012;47.562;18.414;2023-03-03T04:14:23;31.10;;;14.15;;
68192;SDS011;55012;47.562;18.414;2023-03-03T04:16:48;33.20;;;15.05;;
68192;SDS011;55012;47.562;18.414;2023-03-03T04:19:14;34.83;;;14.73;;
68192;SDS011;55012;47.562;18.414;2023-03-03T04:21:39;33.97;;;14.00;;
68192;SDS011;55012;47.562;18.414;2023-03-03T04:24:05;33.55;;;14.60;;
68192;SDS011;55012;47.562;18.414;2023-03-03T04:26:30;32.42;;;13.43;;
68192;SDS011;55012;47.562;18.414;2023-03-03T04:28:56;28.25;;;13.50;;
68192;SDS011;55012;47.562;18.414;2023-03-03T04:31:23;29.15;;;12.82;;
68192;SDS011;55012;47.562;18.414;2023-03-03T04:33:49;31.90;;;13.43;;
68192;SDS011;55012;47.562;18.414;2023-03-03T04:36:15;33.85;;;14.18;;
68192;SDS011;55012;47.562;18.414;2023-03-03T04:38:41;36.28;;;15.38;;
68192;SDS011;55012;47.562;18.414;2023-03-03T04:41:07;35.65;;;15.30;;
68192;SDS011;55012;47.562;18.414;2023-03-03T04:43:32;33.97;;;14.73;;
68192;SDS011;55012;47.562;18.414;2023-03-03T04:45:58;32.17;;;13.65;;
68192;SDS011;55012;47.562;18.414;2023-03-03T04:48:23;32.85;;;14.00;;
68192;SDS011;55012;47.562;18.414;2023-03-03T04:50:49;34.60;;;14.25;;
68192;SDS011;55012;47.562;18.414;2023-03-03T04:53:14;32.33;;;13.98;;
68192;SDS011;55012;47.562;18.414;2023-03-03T04:55:40;35.05;;;14.85;;
68192;SDS011;55012;47.562;18.414;2023-03-03T04:58:06;36.00;;;14.48;;
68192;SDS011;55012;47.562;18.414;2023-03-03T05:00:33;32.70;;;15.05;;
68192;SDS011;55012;47.562;18.414;2023-03-03T05:02:58;31.70;;;15.68;;
68192;SDS011;55012;47.562;18.414;2023-03-03T05:05:24;37.97;;;16.58;;
68192;SDS011;55012;47.562;18.414;2023-03-03T05:07:49;39.85;;;16.90;;
68192;SDS011;55012;47.562;18.414;2023-03-03T05:10:15;40.13;;;16.40;;
68192;SDS011;55012;47.562;18.414;2023-03-03T05:12:40;35.45;;;14.90;;
68192;SDS011;55012;47.562;18.414;2023-03-03T05:15:06;30.27;;;13.23;;
68192;SDS011;55012;47.562;18.414;2023-03-03T05:17:31;34.78;;;15.68;;
68192;SDS011;55012;47.562;18.414;2023-03-03T05:19:57;38.25;;;15.40;;
68192;SDS011;55012;47.562;18.414;2023-03-03T05:22:23;26.00;;;11.85;;
68192;SDS011;55012;47.562;18.414;2023-03-03T05:24:49;28.15;;;12.35;;
68192;SDS011;55012;47.562;18.414;2023-03-03T05:27:15;28.15;;;10.98;;
68192;SDS011;55012;47.562;18.414;2023-03-03T05:29:40;25.25;;;10.75;;
68192;SDS011;55012;47.562;18.414;2023-03-03T05:32:06;25.30;;;11.07;;
68192;SDS011;55012;47.562;18.414;2023-03-03T05:34:31;26.58;;;11.07;;
68192;SDS011;55012;47.562;18.414;2023-03-03T05:36:57;23.42;;;10.52;;
68192;SDS011;55012;47.562;18.414;2023-03-03T05:39:22;24.88;;;10.18;;
68192;SDS011;55012;47.562;18.414;2023-03-03T05:41:47;32.13;;;13.85;;
68192;SDS011;55012;47.562;18.414;2023-03-03T05:44:13;30.92;;;14.40;;
68192;SDS011;55012;47.562;18.414;2023-03-03T05:46:38;36.50;;;15.65;;
68192;SDS011;55012;47.562;18.414;2023-03-03T05:49:04;31.92;;;14.43;;
68192;SDS011;55012;47.562;18.414;2023-03-03T05:51:29;33.88;;;12.82;;
68192;SDS011;55012;47.562;18.414;2023-03-03T05:53:55;27.27;;;12.05;;
68192;SDS011;55012;47.562;18.414;2023-03-03T05:56:20;30.50;;;13.52;;
68192;SDS011;55012;47.562;18.414;2023-03-03T05:58:46;30.30;;;12.82;;
68192;SDS011;55012;47.562;18.414;2023-03-03T06:01:11;31.13;;;12.95;;
68192;SDS011;55012;47.562;18.414;2023-03-03T06:03:37;33.25;;;13.93;;
68192;SDS011;55012;47.562;18.414;2023-03-03T06:06:03;32.22;;;14.02;;
68192;SDS011;55012;47.562;18.414;2023-03-03T06:08:28;37.33;;;14.55;;
68192;SDS011;55012;47.562;18.414;2023-03-03T06:10:56;52.85;;;21.20;;
68192;SDS011;55012;47.562;18.414;2023-03-03T06:13:21;42.17;;;17.77;;
68192;SDS011;55012;47.562;18.414;2023-03-03T06:15:47;41.30;;;18.58;;
68192;SDS011;55012;47.562;18.414;2023-03-03T06:18:12;45.95;;;18.17;;
68192;SDS011;55012;47.562;18.414;2023-03-03T06:20:38;52.75;;;19.65;;
68192;SDS011;55012;47.562;18.414;2023-03-03T06:23:03;49.60;;;21.40;;
68192;SDS011;55012;47.562;18.414;2023-03-03T06:25:29;50.15;;;21.88;;
68192;SDS011;55012;47.562;18.414;2023-03-03T06:27:55;50.47;;;22.42;;
68192;SDS011;55012;47.562;18.414;2023-03-03T06:30:21;55.58;;;23.52;;
68192;SDS011;55012;47.562;18.414;2023-03-03T06:32:46;57.05;;;23.83;;
68192;SDS011;55012;47.562;18.414;2023-03-03T06:35:12;54.65;;;22.88;;
68192;SDS011;55012;47.562;18.414;2023-03-03T06:37:37;45.55;;;18.95;;
68192;SDS011;55012;47.562;18.414;2023-03-03T06:40:03;44.28;;;18.25;;
68192;SDS011;55012;47.562;18.414;2023-03-03T06:42:29;38.92;;;16.77;;
68192;SDS011;55012;47.562;18.414;2023-03-03T06:44:55;37.63;;;15.90;;
68192;SDS011;55012;47.562;18.414;2023-03-03T06:47:20;42.55;;;18.13;;
68192;SDS011;55012;47.562;18.414;2023-03-03T06:49:46;42.78;;;19.10;;
68192;SDS011;55012;47.562;18.414;2023-03-03T06:52:13;45.17;;;19.70;;
68192;SDS011;55012;47.562;18.414;2023-03-03T06:54:42;40.78;;;16.90;;
68192;SDS011;55012;47.562;18.414;2023-03-03T06:57:15;36.92;;;16.95;;
68192;SDS011;55012;47.562;18.414;2023-03-03T06:59:52;39.83;;;16.92;;
68192;SDS011;55012;47.562;18.414;2023-03-03T07:02:19;38.28;;;17.23;;
68192;SDS011;55012;47.562;18.414;2023-03-03T07:04:45;38.03;;;17.52;;
68192;SDS011;55012;47.562;18.414;2023-03-03T07:07:24;39.28;;;17.25;;
68192;SDS011;55012;47.562;18.414;2023-03-03T07:09:53;57.38;;;25.02;;
68192;SDS011;55012;47.562;18.414;2023-03-03T07:12:20;64.65;;;28.40;;
68192;SDS011;55012;47.562;18.414;2023-03-03T07:14:51;65.80;;;28.23;;
68192;SDS011;55012;47.562;18.414;2023-03-03T07:17:23;62.80;;;26.45;;
68192;SDS011;55012;47.562;18.414;2023-03-03T07:19:49;60.05;;;24.92;;
68192;SDS011;55012;47.562;18.414;2023-03-03T07:22:16;61.33;;;26.23;;
68192;SDS011;55012;47.562;18.414;2023-03-03T07:24:43;60.50;;;26.65;;
68192;SDS011;55012;47.562;18.414;2023-03-03T07:27:12;62.63;;;26.95;;
68192;SDS011;55012;47.562;18.414;2023-03-03T07:29:47;58.75;;;25.15;;
68192;SDS011;55012;47.562;18.414;2023-03-03T07:34:51;70.70;;;26.95;;
68192;SDS011;55012;47.562;18.414;2023-03-03T07:39:56;59.90;;;24.52;;
68192;SDS011;55012;47.562;18.414;2023-03-03T07:44:58;60.20;;;26.10;;
68192;SDS011;55012;47.562;18.414;2023-03-03T07:47:25;62.60;;;27.08;;
68192;SDS011;55012;47.562;18.414;2023-03-03T07:49:53;58.47;;;26.58;;
68192;SDS011;55012;47.562;18.414;2023-03-03T07:52:30;53.03;;;23.77;;
68192;SDS011;55012;47.562;18.414;2023-03-03T07:55:17;49.30;;;21.98;;
68192;SDS011;55012;47.562;18.414;2023-03-03T07:57:44;44.47;;;20.38;;
68192;SDS011;55012;47.562;18.414;2023-03-03T08:02:42;44.63;;;19.05;;
68192;SDS011;55012;47.562;18.414;2023-03-03T08:05:56;43.78;;;17.83;;
68192;SDS011;55012;47.562;18.414;2023-03-03T08:13:22;41.28;;;18.38;;
68192;SDS011;55012;47.562;18.414;2023-03-03T08:16:01;39.65;;;18.10;;
68192;SDS011;55012;47.562;18.414;2023-03-03T08:18:48;40.72;;;17.65;;
68192;SDS011;55012;47.562;18.414;2023-03-03T08:21:24;39.70;;;18.42;;
68192;SDS011;55012;47.562;18.414;2023-03-03T08:23:51;36.42;;;17.00;;
68192;SDS011;55012;47.562;18.414;2023-03-03T08:26:20;41.75;;;19.63;;
68192;SDS011;55012;47.562;18.414;2023-03-03T08:28:47;45.60;;;19.33;;
68192;SDS011;55012;47.562;18.414;2023-03-03T08:31:13;42.65;;;20.17;;
68192;SDS011;55012;47.562;18.414;2023-03-03T08:33:39;40.65;;;19.30;;
68192;SDS011;55012;47.562;18.414;2023-03-03T08:36:05;42.67;;;20.83;;
68192;SDS011;55012;47.562;18.414;2023-03-03T08:38:31;47.30;;;21.42;;
68192;SDS011;55012;47.562;18.414;2023-03-03T08:40:57;54.63;;;24.30;;
68192;SDS011;55012;47.562;18.414;2023-03-03T08:43:23;52.53;;;24.17;;
68192;SDS011;55012;47.562;18.414;2023-03-03T08:45:49;49.10;;;22.77;;
68192;SDS011;55012;47.562;18.414;2023-03-03T08:48:17;48.22;;;22.00;;
68192;SDS011;55012;47.562;18.414;2023-03-03T08:50:43;49.42;;;21.48;;
68192;SDS011;55012;47.562;18.414;2023-03-03T08:53:09;52.92;;;23.38;;
68192;SDS011;55012;47.562;18.414;2023-03-03T08:55:36;47.83;;;22.27;;
68192;SDS011;55012;47.562;18.414;2023-03-03T08:58:02;51.92;;;22.92;;
68192;SDS011;55012;47.562;18.414;2023-03-03T09:00:27;47.20;;;22.55;;
68192;SDS011;55012;47.562;18.414;2023-03-03T09:02:53;46.83;;;22.85;;
68192;SDS011;55012;47.562;18.414;2023-03-03T09:05:19;48.38;;;22.40;;
68192;SDS011;55012;47.562;18.414;2023-03-03T09:07:46;49.45;;;22.45;;
68192;SDS011;55012;47.562;18.414;2023-03-03T09:10:16;51.05;;;22.80;;
68192;SDS011;55012;47.562;18.414;2023-03-03T09:12:44;42.85;;;21.38;;
68192;SDS011;55012;47.562;18.414;2023-03-03T09:17:45;42.97;;;20.58;;
68192;SDS011;55012;47.562;18.414;2023-03-03T09:22:57;54.13;;;23.50;;
68192;SDS011;55012;47.562;18.414;2023-03-03T09:25:49;42.97;;;20.23;;
68192;SDS011;55012;47.562;18.414;2023-03-03T09:30:53;39.88;;;19.05;;
68192;SDS011;55012;47.562;18.414;2023-03-03T09:33:37;41.42;;;19.27;;
68192;SDS011;55012;47.562;18.414;2023-03-03T09:38:52;42.17;;;19.08;;
68192;SDS011;55012;47.562;18.414;2023-03-03T09:49:35;36.92;;;17.85;;
68192;SDS011;55012;47.562;18.414;2023-03-03T09:57:35;38.38;;;17.65;;
68192;SDS011;55012;47.562;18.414;2023-03-03T10:00:27;35.58;;;17.02;;
68192;SDS011;55012;47.562;18.414;2023-03-03T10:03:02;39.58;;;16.52;;
68192;SDS011;55012;47.562;18.414;2023-03-03T10:05:57;37.78;;;16.70;;
68192;SDS011;55012;47.562;18.414;2023-03-03T10:11:04;32.95;;;15.15;;
68192;SDS011;55012;47.562;18.414;2023-03-03T10:36:03;28.23;;;13.43;;
68192;SDS011;55012;47.562;18.414;2023-03-03T10:38:37;29.42;;;12.90;;
68192;SDS011;55012;47.562;18.414;2023-03-03T10:46:34;30.17;;;14.85;;
68192;SDS011;55012;47.562;18.414;2023-03-03T11:02:56;33.85;;;15.27;;
68192;SDS011;55012;47.562;18.414;2023-03-03T11:08:27;31.40;;;14.98;;
68192;SDS011;55012;47.562;18.414;2023-03-03T11:27:19;25.65;;;12.18;;
68192;SDS011;55012;47.562;18.414;2023-03-03T11:40:58;30.77;;;15.07;;
68192;SDS011;55012;47.562;18.414;2023-03-03T11:43:30;28.52;;;13.55;;
68192;SDS011;55012;47.562;18.414;2023-03-03T11:46:21;31.77;;;14.30;;
68192;SDS011;55012;47.562;18.414;2023-03-03T11:57:14;32.20;;;15.57;;
68192;SDS011;55012;47.562;18.414;2023-03-03T12:00:05;33.10;;;17.35;;
68192;SDS011;55012;47.562;18.414;2023-03-03T12:02:54;36.92;;;16.67;;
68192;SDS011;55012;47.562;18.414;2023-03-03T12:05:41;30.63;;;16.08;;
68192;SDS011;55012;47.562;18.414;2023-03-03T12:08:35;35.47;;;17.48;;
68192;SDS011;55012;47.562;18.414;2023-03-03T12:25:04;32.97;;;17.13;;
68192;SDS011;55012;47.562;18.414;2023-03-03T12:27:56;35.45;;;15.93;;
68192;SDS011;55012;47.562;18.414;2023-03-03T12:33:53;25.40;;;12.93;;
68192;SDS011;55012;47.562;18.414;2023-03-03T12:39:02;29.55;;;15.13;;
68192;SDS011;55012;47.562;18.414;2023-03-03T12:41:43;31.23;;;15.57;;
68192;SDS011;55012;47.562;18.414;2023-03-03T12:44:24;28.92;;;15.40;;
68192;SDS011;55012;47.562;18.414;2023-03-03T12:47:26;28.67;;;14.13;;
68192;SDS011;55012;47.562;18.414;2023-03-03T12:50:00;29.45;;;12.93;;
68192;SDS011;55012;47.562;18.414;2023-03-03T13:03:25;32.08;;;14.63;;
68192;SDS011;55012;47.562;18.414;2023-03-03T13:17:00;22.42;;;11.75;;
68192;SDS011;55012;47.562;18.414;2023-03-03T13:19:40;22.08;;;12.05;;
68192;SDS011;55012;47.562;18.414;2023-03-03T13:22:12;23.58;;;11.63;;
68192;SDS011;55012;47.562;18.414;2023-03-03T13:27:23;23.83;;;11.80;;
68192;SDS011;55012;47.562;18.414;2023-03-03T13:29:58;21.52;;;11.65;;
68192;SDS011;55012;47.562;18.414;2023-03-03T13:35:22;23.60;;;12.07;;
68192;SDS011;55012;47.562;18.414;2023-03-03T13:37:52;24.52;;;12.05;;
68192;SDS011;55012;47.562;18.414;2023-03-03T13:45:45;26.17;;;13.77;;
68192;SDS011;55012;47.562;18.414;2023-03-03T13:50:52;32.97;;;15.27;;
68192;SDS011;55012;47.562;18.414;2023-03-03T13:56:13;30.00;;;16.60;;
68192;SDS011;55012;47.562;18.414;2023-03-03T13:59:06;33.40;;;17.35;;
68192;SDS011;55012;47.562;18.414;2023-03-03T14:10:12;36.22;;;18.40;;
68192;SDS011;55012;47.562;18.414;2023-03-03T14:15:27;38.97;;;20.25;;
68192;SDS011;55012;47.562;18.414;2023-03-03T14:20:44;34.40;;;18.92;;
68192;SDS011;55012;47.562;18.414;2023-03-03T14:23:21;35.28;;;19.65;;
68192;SDS011;55012;47.562;18.414;2023-03-03T14:26:11;39.83;;;19.67;;
68192;SDS011;55012;47.562;18.414;2023-03-03T14:28:42;37.15;;;19.67;;
68192;SDS011;55012;47.562;18.414;2023-03-03T14:34:01;40.38;;;19.70;;
68192;SDS011;55012;47.562;18.414;2023-03-03T14:36:39;39.92;;;20.50;;
68192;SDS011;55012;47.562;18.414;2023-03-03T14:41:57;37.80;;;19.88;;
68192;SDS011;55012;47.562;18.414;2023-03-03T14:54:40;39.92;;;18.83;;
68192;SDS011;55012;47.562;18.414;2023-03-03T15:00:43;41.90;;;19.98;;
68192;SDS011;55012;47.562;18.414;2023-03-03T15:05:47;41.25;;;20.52;;
68192;SDS011;55012;47.562;18.414;2023-03-03T15:08:39;39.20;;;20.80;;
68192;SDS011;55012;47.562;18.414;2023-03-03T15:13:43;47.50;;;24.02;;
68192;SDS011;55012;47.562;18.414;2023-03-03T15:21:31;44.28;;;23.63;;
68192;SDS011;55012;47.562;18.414;2023-03-03T15:24:14;44.80;;;24.02;;
68192;SDS011;55012;47.562;18.414;2023-03-03T15:27:00;46.22;;;24.27;;
68192;SDS011;55012;47.562;18.414;2023-03-03T15:29:41;48.50;;;24.27;;
68192;SDS011;55012;47.562;18.414;2023-03-03T15:37:54;41.28;;;21.10;;
68192;SDS011;55012;47.562;18.414;2023-03-03T15:57:30;48.40;;;23.20;;
68192;SDS011;55012;47.562;18.414;2023-03-03T16:02:48;54.90;;;26.17;;
68192;SDS011;55012;47.562;18.414;2023-03-03T16:05:22;54.75;;;26.60;;
68192;SDS011;55012;47.562;18.414;2023-03-03T16:08:04;58.65;;;27.92;;
68192;SDS011;55012;47.562;18.414;2023-03-03T16:22:02;56.30;;;25.90;;
68192;SDS011;55012;47.562;18.414;2023-03-03T16:35:43;61.95;;;28.10;;
68192;SDS011;55012;47.562;18.414;2023-03-03T16:38:37;60.60;;;27.08;;
68192;SDS011;55012;47.562;18.414;2023-03-03T16:41:59;59.85;;;26.00;;
68192;SDS011;55012;47.562;18.414;2023-03-03T16:46:52;61.50;;;25.77;;
68192;SDS011;55012;47.562;18.414;2023-03-03T16:52:32;59.40;;;26.00;;
68192;SDS011;55012;47.562;18.414;2023-03-03T16:55:14;57.20;;;25.65;;
68192;SDS011;55012;47.562;18.414;2023-03-03T17:00:27;58.53;;;24.27;;
68192;SDS011;55012;47.562;18.414;2023-03-03T17:10:49;64.82;;;27.65;;
68192;SDS011;55012;47.562;18.414;2023-03-03T17:13:40;63.33;;;27.13;;
68192;SDS011;55012;47.562;18.414;2023-03-03T17:16:36;62.58;;;27.05;;
68192;SDS011;55012;47.562;18.414;2023-03-03T17:19:15;65.03;;;28.00;;
68192;SDS011;55012;47.562;18.414;2023-03-03T17:38:20;62.47;;;26.65;;
68192;SDS011;55012;47.562;18.414;2023-03-03T17:43:52;68.38;;;27.98;;
68192;SDS011;55012;47.562;18.414;2023-03-03T17:57:00;73.32;;;30.80;;
68192;SDS011;55012;47.562;18.414;2023-03-03T18:08:22;74.60;;;31.00;;
68192;SDS011;55012;47.562;18.414;2023-03-03T18:26:53;73.25;;;30.45;;
68192;SDS011;55012;47.562;18.414;2023-03-03T18:29:23;67.63;;;28.88;;
68192;SDS011;55012;47.562;18.414;2023-03-03T18:39:47;71.47;;;29.23;;
68192;SDS011;55012;47.562;18.414;2023-03-03T18:44:39;69.50;;;30.35;;
68192;SDS011;55012;47.562;18.414;2023-03-03T18:47:06;71.90;;;31.27;;
68192;SDS011;55012;47.562;18.414;2023-03-03T18:52:34;73.32;;;29.80;;
68192;SDS011;55012;47.562;18.414;2023-03-03T18:55:19;66.37;;;29.67;;
68192;SDS011;55012;47.562;18.414;2023-03-03T19:00:43;69.32;;;28.42;;
68192;SDS011;55012;47.562;18.414;2023-03-03T19:05:49;66.35;;;28.15;;
68192;SDS011;55012;47.562;18.414;2023-03-03T19:08:25;62.45;;;26.40;;
68192;SDS011;55012;47.562;18.414;2023-03-03T19:10:59;67.70;;;26.95;;
68192;SDS011;55012;47.562;18.414;2023-03-03T19:15:58;55.45;;;23.13;;
68192;SDS011;55012;47.562;18.414;2023-03-03T19:21:20;52.25;;;23.02;;
68192;SDS011;55012;47.562;18.414;2023-03-03T19:23:53;57.90;;;23.53;;
68192;SDS011;55012;47.562;18.414;2023-03-03T19:37:00;50.35;;;21.10;;
68192;SDS011;55012;47.562;18.414;2023-03-03T19:39:48;44.50;;;18.05;;
68192;SDS011;55012;47.562;18.414;2023-03-03T19:48:16;48.03;;;20.17;;
68192;SDS011;55012;47.562;18.414;2023-03-03T19:56:41;43.17;;;18.40;;
68192;SDS011;55012;47.562;18.414;2023-03-03T20:10:38;41.97;;;17.83;;
68192;SDS011;55012;47.562;18.414;2023-03-03T20:13:13;41.97;;;17.05;;
68192;SDS011;55012;47.562;18.414;2023-03-03T20:18:49;44.72;;;17.77;;
68192;SDS011;55012;47.562;18.414;2023-03-03T20:26:44;42.00;;;17.23;;
68192;SDS011;55012;47.562;18.414;2023-03-03T20:32:19;41.55;;;16.98;;
68192;SDS011;55012;47.562;18.414;2023-03-03T20:40:23;45.83;;;18.90;;
68192;SDS011;55012;47.562;18.414;2023-03-03T20:59:00;40.00;;;14.57;;
68192;SDS011;55012;47.562;18.414;2023-03-03T21:02:21;38.33;;;17.00;;
68192;SDS011;55012;47.562;18.414;2023-03-03T21:04:43;40.60;;;16.67;;
68192;SDS011;55012;47.562;18.414;2023-03-03T21:07:12;43.08;;;18.45;;
68192;SDS011;55012;47.562;18.414;2023-03-03T21:09:48;46.03;;;18.50;;
68192;SDS011;55012;47.562;18.414;2023-03-03T21:12:27;43.10;;;17.80;;
68192;SDS011;55012;47.562;18.414;2023-03-03T21:14:58;44.25;;;18.73;;
68192;SDS011;55012;47.562;18.414;2023-03-03T21:17:43;46.35;;;18.25;;
68192;SDS011;55012;47.562;18.414;2023-03-03T21:20:28;46.47;;;18.42;;
68192;SDS011;55012;47.562;18.414;2023-03-03T21:22:54;43.08;;;18.63;;
68192;SDS011;55012;47.562;18.414;2023-03-03T21:25:55;46.60;;;19.13;;
68192;SDS011;55012;47.562;18.414;2023-03-03T21:33:44;46.45;;;18.23;;
68192;SDS011;55012;47.562;18.414;2023-03-03T21:36:11;48.80;;;19.58;;
68192;SDS011;55012;47.562;18.414;2023-03-03T21:38:38;47.78;;;18.02;;
68192;SDS011;55012;47.562;18.414;2023-03-03T21:41:05;42.63;;;17.33;;
68192;SDS011;55012;47.562;18.414;2023-03-03T21:43:35;41.47;;;17.30;;
68192;SDS011;55012;47.562;18.414;2023-03-03T21:46:09;44.90;;;18.65;;
68192;SDS011;55012;47.562;18.414;2023-03-03T21:48:36;47.97;;;19.08;;
68192;SDS011;55012;47.562;18.414;2023-03-03T21:51:04;42.15;;;18.20;;
68192;SDS011;55012;47.562;18.414;2023-03-03T21:53:29;52.20;;;19.92;;
68192;SDS011;55012;47.562;18.414;2023-03-03T21:55:55;48.97;;;19.02;;
68192;SDS011;55012;47.562;18.414;2023-03-03T21:58:20;45.05;;;19.23;;
68192;SDS011;55012;47.562;18.414;2023-03-03T22:00:46;48.53;;;19.02;;
68192;SDS011;55012;47.562;18.414;2023-03-03T22:03:12;47.08;;;18.25;;
68192;SDS011;55012;47.562;18.414;2023-03-03T22:05:39;41.30;;;16.98;;